sensor_id;sensor_type;location;lat;lon;timestamp;pressure;altitude;pressure_sealevel;temperature;humidity
48810;BME280;40070;47.322;18.784;2022-10-12T00:00:48;1010.57;;;13.30;68.91
48810;BME280;40070;47.322;18.784;2022-10-12T00:02:51;1010.53;;;13.15;69.12
48810;BME280;40070;47.322;18.784;2022-10-12T00:04:53;1010.54;;;13.13;69.08
48810;BME280;40070;47.322;18.784;2022-10-12T00:06:56;1010.54;;;13.08;69.06
48810;BME280;40070;47.322;18.784;2022-10-12T00:08:58;1010.52;;;12.78;69.93
48810;BME280;40070;47.322;18.784;2022-10-12T00:11:01;1010.59;;;12.89;70.01
48810;BME280;40070;47.322;18.784;2022-10-12T00:13:03;1010.60;;;12.94;69.44
48810;BME280;40070;47.322;18.784;2022-10-12T00:15:06;1010.61;;;12.89;69.39
48810;BME280;40070;47.322;18.784;2022-10-12T00:17:08;1010.59;;;12.81;69.59
48810;BME280;40070;47.322;18.784;2022-10-12T00:19:11;1010.58;;;12.63;70.20
48810;BME280;40070;47.322;18.784;2022-10-12T00:21:14;1010.57;;;12.73;69.88
48810;BME280;40070;47.322;18.784;2022-10-12T00:23:17;1010.56;;;12.67;69.95
48810;BME280;40070;47.322;18.784;2022-10-12T00:25:20;1010.53;;;12.68;69.88
48810;BME280;40070;47.322;18.784;2022-10-12T00:27:22;1010.56;;;12.68;69.81
48810;BME280;40070;47.322;18.784;2022-10-12T00:29:24;1010.55;;;12.57;70.20
48810;BME280;40070;47.322;18.784;2022-10-12T00:31:27;1010.53;;;12.93;69.30
48810;BME280;40070;47.322;18.784;2022-10-12T00:33:30;1010.54;;;13.07;68.49
48810;BME280;40070;47.322;18.784;2022-10-12T00:35:33;1010.52;;;13.05;68.05
48810;BME280;40070;47.322;18.784;2022-10-12T00:37:35;1010.55;;;13.14;67.63
48810;BME280;40070;47.322;18.784;2022-10-12T00:39:37;1010.53;;;12.88;68.32
48810;BME280;40070;47.322;18.784;2022-10-12T00:41:41;1010.53;;;13.01;68.04
48810;BME280;40070;47.322;18.784;2022-10-12T00:43:45;1010.53;;;13.17;67.54
48810;BME280;40070;47.322;18.784;2022-10-12T00:45:47;1010.55;;;13.17;66.86
48810;BME280;40070;47.322;18.784;2022-10-12T00:47:51;1010.53;;;13.14;66.75
48810;BME280;40070;47.322;18.784;2022-10-12T00:50:07;1010.55;;;12.82;66.92
48810;BME280;40070;47.322;18.784;2022-10-12T00:52:10;1010.53;;;12.69;67.54
48810;BME280;40070;47.322;18.784;2022-10-12T00:54:15;1010.56;;;12.72;67.61
48810;BME280;40070;47.322;18.784;2022-10-12T00:56:21;1010.54;;;12.66;67.74
48810;BME280;40070;47.322;18.784;2022-10-12T00:58:24;1010.57;;;12.68;67.59
48810;BME280;40070;47.322;18.784;2022-10-12T01:00:28;1010.57;;;12.81;67.19
48810;BME280;40070;47.322;18.784;2022-10-12T01:02:30;1010.56;;;12.79;67.11
48810;BME280;40070;47.322;18.784;2022-10-12T01:04:34;1010.56;;;12.79;66.89
48810;BME280;40070;47.322;18.784;2022-10-12T01:06:36;1010.54;;;12.80;66.98
48810;BME280;40070;47.322;18.784;2022-10-12T01:08:39;1010.53;;;12.80;67.03
48810;BME280;40070;47.322;18.784;2022-10-12T01:10:41;1010.54;;;12.68;67.29
48810;BME280;40070;47.322;18.784;2022-10-12T01:12:45;1010.60;;;12.63;67.62
48810;BME280;40070;47.322;18.784;2022-10-12T01:14:48;1010.56;;;12.68;67.58
48810;BME280;40070;47.322;18.784;2022-10-12T01:19:39;1010.63;;;12.69;67.11
48810;BME280;40070;47.322;18.784;2022-10-12T01:22:00;1010.66;;;12.70;66.92
48810;BME280;40070;47.322;18.784;2022-10-12T01:24:20;1010.72;;;12.76;66.75
48810;BME280;40070;47.322;18.784;2022-10-12T01:28:57;1010.73;;;12.78;66.53
48810;BME280;40070;47.322;18.784;2022-10-12T01:31:09;1010.76;;;12.76;66.17
48810;BME280;40070;47.322;18.784;2022-10-12T01:33:22;1010.82;;;12.75;65.98
48810;BME280;40070;47.322;18.784;2022-10-12T01:37:59;1010.75;;;12.42;66.92
48810;BME280;40070;47.322;18.784;2022-10-12T01:40:06;1010.76;;;12.38;66.72
48810;BME280;40070;47.322;18.784;2022-10-12T01:42:14;1010.76;;;12.35;67.04
48810;BME280;40070;47.322;18.784;2022-10-12T01:44:21;1010.75;;;12.23;67.00
48810;BME280;40070;47.322;18.784;2022-10-12T01:48:38;1010.77;;;12.38;66.62
48810;BME280;40070;47.322;18.784;2022-10-12T01:50:46;1010.83;;;12.41;66.41
48810;BME280;40070;47.322;18.784;2022-10-12T02:00:00;1010.83;;;12.33;67.64
48810;BME280;40070;47.322;18.784;2022-10-12T02:02:52;1010.82;;;12.36;67.80
48810;BME280;40070;47.322;18.784;2022-10-12T02:04:31;1010.83;;;12.45;67.66
48810;BME280;40070;47.322;18.784;2022-10-12T02:06:40;1010.85;;;12.57;67.09
48810;BME280;40070;47.322;18.784;2022-10-12T02:08:56;1010.83;;;12.21;68.46
48810;BME280;40070;47.322;18.784;2022-10-12T02:11:03;1010.85;;;12.26;68.53
48810;BME280;40070;47.322;18.784;2022-10-12T02:13:08;1010.86;;;12.27;68.54
48810;BME280;40070;47.322;18.784;2022-10-12T02:15:12;1010.85;;;12.17;68.85
48810;BME280;40070;47.322;18.784;2022-10-12T02:17:17;1010.81;;;12.22;68.71
48810;BME280;40070;47.322;18.784;2022-10-12T02:19:22;1010.83;;;12.35;68.34
48810;BME280;40070;47.322;18.784;2022-10-12T02:21:28;1010.83;;;12.18;68.66
48810;BME280;40070;47.322;18.784;2022-10-12T02:23:31;1010.79;;;12.21;68.63
48810;BME280;40070;47.322;18.784;2022-10-12T02:25:35;1010.83;;;12.35;67.88
48810;BME280;40070;47.322;18.784;2022-10-12T02:27:39;1010.78;;;12.16;68.29
48810;BME280;40070;47.322;18.784;2022-10-12T02:29:43;1010.82;;;12.34;68.09
48810;BME280;40070;47.322;18.784;2022-10-12T02:34:12;1010.83;;;12.56;67.10
48810;BME280;40070;47.322;18.784;2022-10-12T02:36:31;1010.83;;;12.53;67.17
48810;BME280;40070;47.322;18.784;2022-10-12T02:38:44;1010.83;;;12.56;67.10
48810;BME280;40070;47.322;18.784;2022-10-12T02:40:50;1010.82;;;12.58;66.79
48810;BME280;40070;47.322;18.784;2022-10-12T02:42:55;1010.84;;;12.57;66.84
48810;BME280;40070;47.322;18.784;2022-10-12T02:44:59;1010.82;;;12.47;66.94
48810;BME280;40070;47.322;18.784;2022-10-12T02:47:03;1010.84;;;12.40;67.20
48810;BME280;40070;47.322;18.784;2022-10-12T02:49:07;1010.84;;;12.18;67.56
48810;BME280;40070;47.322;18.784;2022-10-12T02:51:11;1010.84;;;12.12;67.91
48810;BME280;40070;47.322;18.784;2022-10-12T02:53:13;1010.88;;;12.23;67.66
48810;BME280;40070;47.322;18.784;2022-10-12T02:55:16;1010.87;;;12.29;67.29
48810;BME280;40070;47.322;18.784;2022-10-12T02:57:19;1010.89;;;11.74;68.67
48810;BME280;40070;47.322;18.784;2022-10-12T02:59:21;1010.90;;;11.87;68.76
48810;BME280;40070;47.322;18.784;2022-10-12T03:01:24;1010.88;;;11.86;68.50
48810;BME280;40070;47.322;18.784;2022-10-12T03:03:26;1010.89;;;12.00;68.08
48810;BME280;40070;47.322;18.784;2022-10-12T03:05:28;1010.88;;;11.76;68.72
48810;BME280;40070;47.322;18.784;2022-10-12T03:07:31;1010.87;;;11.57;69.22
48810;BME280;40070;47.322;18.784;2022-10-12T03:09:33;1010.90;;;11.62;69.34
48810;BME280;40070;47.322;18.784;2022-10-12T03:11:36;1010.91;;;11.74;69.20
48810;BME280;40070;47.322;18.784;2022-10-12T03:13:38;1010.90;;;11.97;68.38
48810;BME280;40070;47.322;18.784;2022-10-12T03:15:41;1010.92;;;11.92;68.33
48810;BME280;40070;47.322;18.784;2022-10-12T03:17:43;1010.92;;;11.73;68.75
48810;BME280;40070;47.322;18.784;2022-10-12T03:19:46;1010.92;;;11.77;68.61
48810;BME280;40070;47.322;18.784;2022-10-12T03:21:48;1010.93;;;11.93;68.05
48810;BME280;40070;47.322;18.784;2022-10-12T03:23:50;1010.89;;;12.01;67.65
48810;BME280;40070;47.322;18.784;2022-10-12T03:25:53;1010.93;;;12.02;67.24
48810;BME280;40070;47.322;18.784;2022-10-12T03:27:55;1010.94;;;11.74;68.15
48810;BME280;40070;47.322;18.784;2022-10-12T03:29:58;1010.94;;;11.75;68.18
48810;BME280;40070;47.322;18.784;2022-10-12T03:32:00;1010.96;;;11.71;68.39
48810;BME280;40070;47.322;18.784;2022-10-12T03:34:03;1010.95;;;11.76;68.07
48810;BME280;40070;47.322;18.784;2022-10-12T03:36:05;1010.94;;;11.76;68.19
48810;BME280;40070;47.322;18.784;2022-10-12T03:38:08;1010.95;;;11.64;68.48
48810;BME280;40070;47.322;18.784;2022-10-12T03:40:11;1010.92;;;11.75;68.21
48810;BME280;40070;47.322;18.784;2022-10-12T03:42:13;1010.95;;;11.82;68.22
48810;BME280;40070;47.322;18.784;2022-10-12T03:44:16;1010.90;;;11.83;68.02
48810;BME280;40070;47.322;18.784;2022-10-12T03:46:18;1010.90;;;11.81;68.25
48810;BME280;40070;47.322;18.784;2022-10-12T03:48:20;1010.94;;;11.69;68.64
48810;BME280;40070;47.322;18.784;2022-10-12T03:50:23;1010.95;;;11.78;68.35
48810;BME280;40070;47.322;18.784;2022-10-12T03:52:25;1010.94;;;11.71;68.40
48810;BME280;40070;47.322;18.784;2022-10-12T03:54:28;1010.95;;;11.71;68.51
48810;BME280;40070;47.322;18.784;2022-10-12T03:56:30;1010.89;;;11.76;68.29
48810;BME280;40070;47.322;18.784;2022-10-12T03:58:33;1010.90;;;11.69;68.63
48810;BME280;40070;47.322;18.784;2022-10-12T04:00:35;1010.87;;;11.76;68.32
48810;BME280;40070;47.322;18.784;2022-10-12T04:02:38;1010.89;;;11.63;68.71
48810;BME280;40070;47.322;18.784;2022-10-12T04:04:41;1010.87;;;11.55;69.22
48810;BME280;40070;47.322;18.784;2022-10-12T04:06:43;1010.87;;;11.60;69.20
48810;BME280;40070;47.322;18.784;2022-10-12T04:08:45;1010.84;;;11.65;68.98
48810;BME280;40070;47.322;18.784;2022-10-12T04:10:48;1010.82;;;11.64;69.12
48810;BME280;40070;47.322;18.784;2022-10-12T04:12:51;1010.83;;;11.52;69.44
48810;BME280;40070;47.322;18.784;2022-10-12T04:14:53;1010.83;;;11.57;69.43
48810;BME280;40070;47.322;18.784;2022-10-12T04:16:55;1010.89;;;11.63;69.18
48810;BME280;40070;47.322;18.784;2022-10-12T04:18:58;1010.87;;;11.60;68.80
48810;BME280;40070;47.322;18.784;2022-10-12T04:21:00;1010.88;;;11.72;68.36
48810;BME280;40070;47.322;18.784;2022-10-12T04:23:03;1010.89;;;11.80;68.15
48810;BME280;40070;47.322;18.784;2022-10-12T04:25:06;1010.89;;;11.75;68.35
48810;BME280;40070;47.322;18.784;2022-10-12T04:27:08;1010.89;;;11.75;68.52
48810;BME280;40070;47.322;18.784;2022-10-12T04:29:11;1010.93;;;11.65;69.01
48810;BME280;40070;47.322;18.784;2022-10-12T04:31:14;1010.93;;;11.85;68.42
48810;BME280;40070;47.322;18.784;2022-10-12T04:33:16;1010.94;;;11.42;69.51
48810;BME280;40070;47.322;18.784;2022-10-12T04:35:19;1010.91;;;11.25;70.00
48810;BME280;40070;47.322;18.784;2022-10-12T04:37:21;1010.94;;;11.52;69.50
48810;BME280;40070;47.322;18.784;2022-10-12T04:39:24;1010.89;;;11.29;70.11
48810;BME280;40070;47.322;18.784;2022-10-12T04:41:26;1010.92;;;11.58;69.22
48810;BME280;40070;47.322;18.784;2022-10-12T04:43:29;1010.91;;;11.72;68.93
48810;BME280;40070;47.322;18.784;2022-10-12T04:45:31;1010.93;;;11.72;68.66
48810;BME280;40070;47.322;18.784;2022-10-12T04:47:33;1010.96;;;11.81;68.21
48810;BME280;40070;47.322;18.784;2022-10-12T04:49:36;1010.98;;;11.82;68.20
48810;BME280;40070;47.322;18.784;2022-10-12T04:51:38;1010.99;;;11.85;68.04
48810;BME280;40070;47.322;18.784;2022-10-12T04:53:41;1011.01;;;11.88;67.78
48810;BME280;40070;47.322;18.784;2022-10-12T04:55:43;1011.04;;;11.91;67.70
48810;BME280;40070;47.322;18.784;2022-10-12T04:57:46;1011.00;;;11.96;67.51
48810;BME280;40070;47.322;18.784;2022-10-12T04:59:48;1011.03;;;11.90;67.55
48810;BME280;40070;47.322;18.784;2022-10-12T05:01:51;1011.03;;;11.95;67.44
48810;BME280;40070;47.322;18.784;2022-10-12T05:03:53;1011.08;;;11.85;67.72
48810;BME280;40070;47.322;18.784;2022-10-12T05:05:56;1011.04;;;11.85;67.44
48810;BME280;40070;47.322;18.784;2022-10-12T05:07:58;1011.08;;;11.97;67.05
48810;BME280;40070;47.322;18.784;2022-10-12T05:10:01;1011.09;;;12.02;66.88
48810;BME280;40070;47.322;18.784;2022-10-12T05:12:03;1011.13;;;12.00;67.17
48810;BME280;40070;47.322;18.784;2022-10-12T05:14:07;1011.12;;;11.59;68.75
48810;BME280;40070;47.322;18.784;2022-10-12T05:16:10;1011.14;;;11.56;68.90
48810;BME280;40070;47.322;18.784;2022-10-12T05:18:12;1011.20;;;11.67;68.79
48810;BME280;40070;47.322;18.784;2022-10-12T05:20:14;1011.14;;;11.57;69.07
48810;BME280;40070;47.322;18.784;2022-10-12T05:22:17;1011.15;;;11.44;69.56
48810;BME280;40070;47.322;18.784;2022-10-12T05:24:19;1011.15;;;11.74;68.96
48810;BME280;40070;47.322;18.784;2022-10-12T05:26:22;1011.15;;;11.86;68.75
48810;BME280;40070;47.322;18.784;2022-10-12T05:28:24;1011.15;;;11.87;68.73
48810;BME280;40070;47.322;18.784;2022-10-12T05:30:26;1011.15;;;11.96;68.73
48810;BME280;40070;47.322;18.784;2022-10-12T05:32:29;1011.17;;;12.08;68.56
48810;BME280;40070;47.322;18.784;2022-10-12T05:34:31;1011.20;;;12.02;69.00
48810;BME280;40070;47.322;18.784;2022-10-12T05:36:34;1011.19;;;12.11;68.98
48810;BME280;40070;47.322;18.784;2022-10-12T05:38:36;1011.20;;;12.21;69.11
48810;BME280;40070;47.322;18.784;2022-10-12T05:40:39;1011.20;;;12.32;69.01
48810;BME280;40070;47.322;18.784;2022-10-12T05:42:41;1011.21;;;12.45;68.78
48810;BME280;40070;47.322;18.784;2022-10-12T05:44:44;1011.24;;;12.50;68.99
48810;BME280;40070;47.322;18.784;2022-10-12T05:46:46;1011.23;;;12.36;69.83
48810;BME280;40070;47.322;18.784;2022-10-12T05:48:49;1011.24;;;12.47;70.05
48810;BME280;40070;47.322;18.784;2022-10-12T05:50:51;1011.26;;;12.64;69.96
48810;BME280;40070;47.322;18.784;2022-10-12T05:52:54;1011.28;;;12.70;70.15
48810;BME280;40070;47.322;18.784;2022-10-12T05:54:56;1011.28;;;12.61;70.97
48810;BME280;40070;47.322;18.784;2022-10-12T05:56:59;1011.37;;;12.91;70.47
48810;BME280;40070;47.322;18.784;2022-10-12T05:59:01;1011.34;;;13.02;70.15
48810;BME280;40070;47.322;18.784;2022-10-12T06:01:05;1011.40;;;13.11;70.52
48810;BME280;40070;47.322;18.784;2022-10-12T06:03:08;1011.42;;;13.14;70.84
48810;BME280;40070;47.322;18.784;2022-10-12T06:05:10;1011.41;;;13.36;70.68
48810;BME280;40070;47.322;18.784;2022-10-12T06:07:12;1011.41;;;13.46;70.75
48810;BME280;40070;47.322;18.784;2022-10-12T06:09:15;1011.42;;;13.60;70.79
48810;BME280;40070;47.322;18.784;2022-10-12T06:11:18;1011.46;;;13.68;71.34
48810;BME280;40070;47.322;18.784;2022-10-12T06:13:21;1011.47;;;13.74;71.36
48810;BME280;40070;47.322;18.784;2022-10-12T06:15:24;1011.48;;;13.96;70.76
48810;BME280;40070;47.322;18.784;2022-10-12T06:17:26;1011.48;;;13.81;70.49
48810;BME280;40070;47.322;18.784;2022-10-12T06:19:29;1011.51;;;13.77;70.82
48810;BME280;40070;47.322;18.784;2022-10-12T06:21:31;1011.51;;;14.00;70.22
48810;BME280;40070;47.322;18.784;2022-10-12T06:23:34;1011.51;;;14.21;69.56
48810;BME280;40070;47.322;18.784;2022-10-12T06:25:36;1011.56;;;13.99;70.19
48810;BME280;40070;47.322;18.784;2022-10-12T06:27:39;1011.61;;;14.02;70.57
48810;BME280;40070;47.322;18.784;2022-10-12T06:29:41;1011.63;;;14.27;69.97
48810;BME280;40070;47.322;18.784;2022-10-12T06:31:43;1011.68;;;13.90;70.98
48810;BME280;40070;47.322;18.784;2022-10-12T06:33:46;1011.66;;;14.08;70.75
48810;BME280;40070;47.322;18.784;2022-10-12T06:35:49;1011.60;;;14.35;70.54
48810;BME280;40070;47.322;18.784;2022-10-12T06:37:51;1011.67;;;14.54;70.24
48810;BME280;40070;47.322;18.784;2022-10-12T06:39:54;1011.63;;;14.61;70.49
48810;BME280;40070;47.322;18.784;2022-10-12T06:41:56;1011.63;;;14.72;70.35
48810;BME280;40070;47.322;18.784;2022-10-12T06:43:59;1011.63;;;14.68;70.45
48810;BME280;40070;47.322;18.784;2022-10-12T06:46:01;1011.64;;;14.92;69.84
48810;BME280;40070;47.322;18.784;2022-10-12T06:48:04;1011.64;;;14.94;69.64
48810;BME280;40070;47.322;18.784;2022-10-12T06:50:07;1011.67;;;15.07;69.49
48810;BME280;40070;47.322;18.784;2022-10-12T06:52:09;1011.67;;;15.09;69.69
48810;BME280;40070;47.322;18.784;2022-10-12T06:54:12;1011.70;;;15.25;69.40
48810;BME280;40070;47.322;18.784;2022-10-12T06:56:14;1011.72;;;15.21;70.08
48810;BME280;40070;47.322;18.784;2022-10-12T06:58:17;1011.75;;;15.44;69.60
48810;BME280;40070;47.322;18.784;2022-10-12T07:00:21;1011.75;;;15.67;68.88
48810;BME280;40070;47.322;18.784;2022-10-12T07:02:24;1011.76;;;15.74;68.71
48810;BME280;40070;47.322;18.784;2022-10-12T07:04:26;1011.77;;;15.85;68.54
48810;BME280;40070;47.322;18.784;2022-10-12T07:06:29;1011.79;;;15.68;69.09
48810;BME280;40070;47.322;18.784;2022-10-12T07:08:32;1011.80;;;15.82;68.49
48810;BME280;40070;47.322;18.784;2022-10-12T07:10:34;1011.79;;;15.91;67.95
48810;BME280;40070;47.322;18.784;2022-10-12T07:12:37;1011.77;;;15.93;66.99
48810;BME280;40070;47.322;18.784;2022-10-12T07:14:40;1011.72;;;15.99;66.41
48810;BME280;40070;47.322;18.784;2022-10-12T07:16:42;1011.69;;;16.25;64.50
48810;BME280;40070;47.322;18.784;2022-10-12T07:18:45;1011.67;;;16.08;64.09
48810;BME280;40070;47.322;18.784;2022-10-12T07:20:47;1011.61;;;16.19;64.02
48810;BME280;40070;47.322;18.784;2022-10-12T07:22:51;1011.67;;;16.00;64.52
48810;BME280;40070;47.322;18.784;2022-10-12T07:24:53;1011.65;;;15.88;64.56
48810;BME280;40070;47.322;18.784;2022-10-12T07:26:56;1011.65;;;15.98;64.05
48810;BME280;40070;47.322;18.784;2022-10-12T07:28:58;1011.64;;;16.25;63.20
48810;BME280;40070;47.322;18.784;2022-10-12T07:31:02;1011.63;;;16.28;62.43
48810;BME280;40070;47.322;18.784;2022-10-12T07:33:05;1011.64;;;16.26;62.12
48810;BME280;40070;47.322;18.784;2022-10-12T07:35:07;1011.66;;;16.34;61.21
48810;BME280;40070;47.322;18.784;2022-10-12T07:37:10;1011.65;;;16.40;61.67
48810;BME280;40070;47.322;18.784;2022-10-12T07:39:12;1011.68;;;16.61;60.31
48810;BME280;40070;47.322;18.784;2022-10-12T07:41:15;1011.69;;;16.47;59.46
48810;BME280;40070;47.322;18.784;2022-10-12T07:43:17;1011.69;;;16.46;59.66
48810;BME280;40070;47.322;18.784;2022-10-12T07:45:20;1011.68;;;16.46;58.92
48810;BME280;40070;47.322;18.784;2022-10-12T07:47:22;1011.72;;;16.42;59.19
48810;BME280;40070;47.322;18.784;2022-10-12T07:49:25;1011.75;;;16.50;58.64
48810;BME280;40070;47.322;18.784;2022-10-12T07:51:27;1011.77;;;16.53;58.58
48810;BME280;40070;47.322;18.784;2022-10-12T07:53:30;1011.79;;;16.58;58.38
48810;BME280;40070;47.322;18.784;2022-10-12T07:55:32;1011.77;;;16.63;58.68
48810;BME280;40070;47.322;18.784;2022-10-12T07:57:34;1011.77;;;16.47;58.56
48810;BME280;40070;47.322;18.784;2022-10-12T07:59:37;1011.75;;;16.76;57.67
48810;BME280;40070;47.322;18.784;2022-10-12T08:01:39;1011.76;;;16.77;57.82
48810;BME280;40070;47.322;18.784;2022-10-12T08:03:42;1011.79;;;16.99;56.88
48810;BME280;40070;47.322;18.784;2022-10-12T08:05:44;1011.78;;;16.98;56.04
48810;BME280;40070;47.322;18.784;2022-10-12T08:07:47;1011.80;;;17.04;56.10
48810;BME280;40070;47.322;18.784;2022-10-12T08:09:49;1011.78;;;17.21;56.50
48810;BME280;40070;47.322;18.784;2022-10-12T08:11:52;1011.81;;;17.22;56.61
48810;BME280;40070;47.322;18.784;2022-10-12T08:13:54;1011.78;;;17.35;56.69
48810;BME280;40070;47.322;18.784;2022-10-12T08:15:57;1011.72;;;17.35;55.90
48810;BME280;40070;47.322;18.784;2022-10-12T08:17:59;1011.75;;;17.19;55.78
48810;BME280;40070;47.322;18.784;2022-10-12T08:20:02;1011.74;;;17.39;55.65
48810;BME280;40070;47.322;18.784;2022-10-12T08:22:05;1011.74;;;17.23;55.38
48810;BME280;40070;47.322;18.784;2022-10-12T08:24:08;1011.70;;;17.35;55.22
48810;BME280;40070;47.322;18.784;2022-10-12T08:26:11;1011.66;;;17.65;55.01
48810;BME280;40070;47.322;18.784;2022-10-12T08:28:14;1011.70;;;17.50;55.07
48810;BME280;40070;47.322;18.784;2022-10-12T08:30:16;1011.70;;;17.12;55.81
48810;BME280;40070;47.322;18.784;2022-10-12T08:32:18;1011.68;;;17.26;55.20
48810;BME280;40070;47.322;18.784;2022-10-12T08:34:21;1011.66;;;17.50;54.63
48810;BME280;40070;47.322;18.784;2022-10-12T08:36:23;1011.65;;;17.37;55.09
48810;BME280;40070;47.322;18.784;2022-10-12T08:38:26;1011.60;;;17.54;54.00
48810;BME280;40070;47.322;18.784;2022-10-12T08:40:29;1011.61;;;17.60;53.68
48810;BME280;40070;47.322;18.784;2022-10-12T08:44:52;1011.59;;;17.69;53.02
48810;BME280;40070;47.322;18.784;2022-10-12T08:47:10;1011.57;;;17.89;53.49
48810;BME280;40070;47.322;18.784;2022-10-12T08:49:18;1011.57;;;18.08;52.17
48810;BME280;40070;47.322;18.784;2022-10-12T08:51:22;1011.59;;;18.10;51.70
48810;BME280;40070;47.322;18.784;2022-10-12T08:53:35;1011.59;;;18.15;51.94
48810;BME280;40070;47.322;18.784;2022-10-12T08:55:43;1011.66;;;17.92;51.88
48810;BME280;40070;47.322;18.784;2022-10-12T08:57:46;1011.67;;;17.95;51.44
48810;BME280;40070;47.322;18.784;2022-10-12T08:59:48;1011.66;;;17.84;51.72
48810;BME280;40070;47.322;18.784;2022-10-12T09:02:02;1011.72;;;17.78;52.55
48810;BME280;40070;47.322;18.784;2022-10-12T09:04:39;1011.67;;;17.85;52.02
48810;BME280;40070;47.322;18.784;2022-10-12T09:06:39;1011.66;;;17.86;51.95
48810;BME280;40070;47.322;18.784;2022-10-12T09:09:04;1011.66;;;17.91;52.13
48810;BME280;40070;47.322;18.784;2022-10-12T09:11:55;1011.70;;;18.02;51.70
48810;BME280;40070;47.322;18.784;2022-10-12T09:13:42;1011.67;;;18.16;51.54
48810;BME280;40070;47.322;18.784;2022-10-12T09:15:58;1011.76;;;18.07;50.88
48810;BME280;40070;47.322;18.784;2022-10-12T09:18:01;1011.68;;;18.23;51.23
48810;BME280;40070;47.322;18.784;2022-10-12T09:22:24;1011.60;;;18.38;51.08
48810;BME280;40070;47.322;18.784;2022-10-12T09:24:32;1011.57;;;18.56;50.85
48810;BME280;40070;47.322;18.784;2022-10-12T09:26:36;1011.55;;;18.25;51.55
48810;BME280;40070;47.322;18.784;2022-10-12T09:28:42;1011.58;;;18.63;50.49
48810;BME280;40070;47.322;18.784;2022-10-12T09:30:49;1011.57;;;18.71;50.35
48810;BME280;40070;47.322;18.784;2022-10-12T09:33:01;1011.63;;;18.63;51.13
48810;BME280;40070;47.322;18.784;2022-10-12T09:35:08;1011.60;;;18.45;50.05
48810;BME280;40070;47.322;18.784;2022-10-12T09:37:13;1011.59;;;18.37;50.16
48810;BME280;40070;47.322;18.784;2022-10-12T09:39:20;1011.59;;;18.53;50.01
48810;BME280;40070;47.322;18.784;2022-10-12T09:41:23;1011.57;;;18.63;49.98
48810;BME280;40070;47.322;18.784;2022-10-12T09:43:26;1011.58;;;18.85;50.36
48810;BME280;40070;47.322;18.784;2022-10-12T09:45:29;1011.57;;;18.94;50.73
48810;BME280;40070;47.322;18.784;2022-10-12T09:47:34;1011.54;;;18.93;49.96
48810;BME280;40070;47.322;18.784;2022-10-12T09:49:43;1011.55;;;19.07;50.08
48810;BME280;40070;47.322;18.784;2022-10-12T09:51:45;1011.54;;;19.21;49.25
48810;BME280;40070;47.322;18.784;2022-10-12T09:53:48;1011.51;;;19.31;48.56
48810;BME280;40070;47.322;18.784;2022-10-12T09:55:55;1011.51;;;19.10;48.61
48810;BME280;40070;47.322;18.784;2022-10-12T09:57:58;1011.53;;;19.00;48.72
48810;BME280;40070;47.322;18.784;2022-10-12T10:00:05;1011.53;;;19.01;49.59
48810;BME280;40070;47.322;18.784;2022-10-12T10:02:13;1011.56;;;19.09;49.83
48810;BME280;40070;47.322;18.784;2022-10-12T10:04:21;1011.54;;;19.00;49.61
48810;BME280;40070;47.322;18.784;2022-10-12T10:06:24;1011.56;;;19.15;49.21
48810;BME280;40070;47.322;18.784;2022-10-12T10:08:26;1011.53;;;19.27;49.18
48810;BME280;40070;47.322;18.784;2022-10-12T10:10:29;1011.55;;;19.45;48.25
48810;BME280;40070;47.322;18.784;2022-10-12T10:12:31;1011.56;;;19.44;48.99
48810;BME280;40070;47.322;18.784;2022-10-12T10:14:34;1011.52;;;19.29;49.14
48810;BME280;40070;47.322;18.784;2022-10-12T10:16:45;1011.53;;;19.49;48.12
48810;BME280;40070;47.322;18.784;2022-10-12T10:18:49;1011.57;;;19.46;48.74
48810;BME280;40070;47.322;18.784;2022-10-12T10:20:57;1011.61;;;19.37;49.51
48810;BME280;40070;47.322;18.784;2022-10-12T10:23:00;1011.58;;;19.57;49.13
48810;BME280;40070;47.322;18.784;2022-10-12T10:25:04;1011.61;;;19.64;47.77
48810;BME280;40070;47.322;18.784;2022-10-12T10:27:06;1011.56;;;19.71;47.44
48810;BME280;40070;47.322;18.784;2022-10-12T10:29:42;1011.57;;;19.89;47.77
48810;BME280;40070;47.322;18.784;2022-10-12T10:31:29;1011.60;;;19.94;47.38
48810;BME280;40070;47.322;18.784;2022-10-12T10:33:33;1011.55;;;20.06;47.07
48810;BME280;40070;47.322;18.784;2022-10-12T10:35:35;1011.58;;;19.85;47.00
48810;BME280;40070;47.322;18.784;2022-10-12T10:37:41;1011.54;;;20.02;46.36
48810;BME280;40070;47.322;18.784;2022-10-12T10:39:49;1011.54;;;20.16;46.68
48810;BME280;40070;47.322;18.784;2022-10-12T10:41:52;1011.53;;;20.09;46.64
48810;BME280;40070;47.322;18.784;2022-10-12T10:43:55;1011.51;;;20.28;47.32
48810;BME280;40070;47.322;18.784;2022-10-12T10:45:58;1011.54;;;19.80;46.85
48810;BME280;40070;47.322;18.784;2022-10-12T10:48:07;1011.51;;;19.93;46.26
48810;BME280;40070;47.322;18.784;2022-10-12T10:50:23;1011.51;;;20.17;45.86
48810;BME280;40070;47.322;18.784;2022-10-12T10:52:33;1011.50;;;19.99;46.09
48810;BME280;40070;47.322;18.784;2022-10-12T10:54:36;1011.49;;;20.17;46.79
48810;BME280;40070;47.322;18.784;2022-10-12T10:56:38;1011.44;;;20.21;46.43
48810;BME280;40070;47.322;18.784;2022-10-12T10:58:51;1011.47;;;19.77;47.97
48810;BME280;40070;47.322;18.784;2022-10-12T11:00:55;1011.48;;;20.04;48.01
48810;BME280;40070;47.322;18.784;2022-10-12T11:03:01;1011.47;;;20.35;46.31
48810;BME280;40070;47.322;18.784;2022-10-12T11:05:17;1011.42;;;20.12;46.10
48810;BME280;40070;47.322;18.784;2022-10-12T11:07:24;1011.46;;;20.04;47.12
48810;BME280;40070;47.322;18.784;2022-10-12T11:09:28;1011.46;;;20.17;48.88
48810;BME280;40070;47.322;18.784;2022-10-12T11:11:31;1011.43;;;20.14;46.34
48810;BME280;40070;47.322;18.784;2022-10-12T11:13:37;1011.41;;;20.49;46.18
48810;BME280;40070;47.322;18.784;2022-10-12T11:18:02;1011.37;;;20.31;46.93
48810;BME280;40070;47.322;18.784;2022-10-12T11:20:24;1011.38;;;20.31;46.00
48810;BME280;40070;47.322;18.784;2022-10-12T11:22:33;1011.30;;;20.57;45.41
48810;BME280;40070;47.322;18.784;2022-10-12T11:24:46;1011.36;;;20.54;47.00